Terminal Aerodrome Forecast
Issued by NWS

Home | Current Version | Previous Version | Text Only | Print | Product List | Glossary On
Versions: 1 2 3 4 5 6 7 8 9 10 11 12 13 14 15 16 17 18 19 20 21 22 23 24 25 26 27 28 29 30
000
FTUS45 KBOI 201120
TAFBKE
TAF
KBKE 201120Z 2012/2112 VRB06KT P6SM VCSH OVC010
     FM201300 VRB06KT P6SM -SHRASN OVC035
     FM201500 12010KT 5SM -RA BR BKN025 OVC035
     FM202300 11010KT 2SM -RA BR OVC015=

USA.gov is the U.S. government's official web portal to all federal, state and local government web resources and services.